TimeCST,TemperatureF,Dew PointF,Humidity,Sea Level PressureIn,VisibilityMPH,Wind Direction,Wind SpeedMPH,Gust SpeedMPH,PrecipitationIn,Events,Conditions,WindDirDegrees,DateUTC
12:28 AM,69.8,60.8,73,30.12,6.0,Calm,Calm,-,0.00,,Haze,0,2014-01-09 06:28:00
12:53 AM,68.0,60.1,76,30.12,8.0,South,3.5,-,0.00,,Overcast,190,2014-01-09 06:53:00
1:08 AM,69.8,60.8,73,30.11,9.0,South,4.6,-,N/A,,Mostly Cloudy,180,2014-01-09 07:08:00
1:14 AM,71.6,60.8,69,30.10,5.0,South,3.5,-,N/A,,Haze,180,2014-01-09 07:14:00
1:18 AM,71.6,60.8,69,30.11,2.5,South,3.5,-,N/A,,Haze,190,2014-01-09 07:18:00
1:20 AM,69.8,60.8,73,30.11,1.8,SSW,3.5,-,N/A,,Haze,200,2014-01-09 07:20:00
1:41 AM,68.0,60.8,78,30.10,1.0,SSW,4.6,-,N/A,,Haze,210,2014-01-09 07:41:00
1:53 AM,70.0,60.1,71,30.11,1.2,SSW,4.6,-,0.00,Rain,Light Rain,200,2014-01-09 07:53:00
2:02 AM,69.8,60.8,73,30.10,2.5,SSW,5.8,-,0.00,Rain,Light Rain,210,2014-01-09 08:02:00
2:10 AM,69.8,60.8,73,30.10,4.0,SSW,5.8,-,0.00,Rain,Light Rain,200,2014-01-09 08:10:00
2:17 AM,69.8,60.8,73,30.10,3.0,SSW,4.6,-,0.00,Rain,Light Rain,200,2014-01-09 08:17:00
2:22 AM,69.8,60.8,73,30.10,4.0,Variable,4.6,-,0.00,Rain,Light Rain,0,2014-01-09 08:22:00
2:26 AM,69.8,60.8,73,30.10,6.0,Variable,4.6,-,0.00,Rain,Light Rain,0,2014-01-09 08:26:00
2:53 AM,68.0,61.0,78,30.11,9.0,SW,4.6,-,0.00,,Overcast,220,2014-01-09 08:53:00
3:32 AM,66.2,60.8,83,30.10,10.0,Calm,Calm,-,N/A,,Overcast,0,2014-01-09 09:32:00
3:44 AM,66.2,60.8,83,30.10,7.0,Calm,Calm,-,0.00,Rain,Light Rain,0,2014-01-09 09:44:00
3:53 AM,66.0,61.0,84,30.11,5.0,Variable,3.5,-,0.00,Rain,Light Rain,0,2014-01-09 09:53:00
4:01 AM,66.2,62.6,88,30.10,3.0,Calm,Calm,-,0.01,Rain,Light Rain,0,2014-01-09 10:01:00
4:13 AM,66.2,62.6,88,30.11,7.0,SW,3.5,-,0.01,Rain,Light Rain,220,2014-01-09 10:13:00
4:20 AM,68.0,62.6,83,30.10,7.0,Calm,Calm,-,0.01,Rain,Light Rain,0,2014-01-09 10:20:00
4:30 AM,68.0,62.6,83,30.10,5.0,SW,3.5,-,0.01,Rain,Light Rain,220,2014-01-09 10:30:00
4:53 AM,69.1,62.1,78,30.11,10.0,SSW,3.5,-,0.01,,Overcast,200,2014-01-09 10:53:00
5:14 AM,69.8,62.6,78,30.11,8.0,Calm,Calm,-,0.00,Rain,Light Rain,0,2014-01-09 11:14:00
5:25 AM,71.6,60.8,69,30.11,6.0,NW,3.5,-,0.00,Rain,Light Rain,310,2014-01-09 11:25:00
5:31 AM,73.4,59.0,61,30.11,2.5,NW,3.5,-,0.00,Rain,Light Rain,310,2014-01-09 11:31:00
5:35 AM,75.2,59.0,57,30.11,1.8,Calm,Calm,-,0.00,Rain,Light Rain,0,2014-01-09 11:35:00
5:40 AM,71.6,60.8,69,30.11,2.5,Calm,Calm,-,0.00,,Haze,0,2014-01-09 11:40:00
5:45 AM,66.2,60.8,83,30.11,7.0,Calm,Calm,-,0.00,,Overcast,0,2014-01-09 11:45:00
5:53 AM,64.9,61.0,87,30.12,9.0,Calm,Calm,-,0.00,,Overcast,0,2014-01-09 11:53:00
6:14 AM,64.4,59.0,83,30.11,2.0,Calm,Calm,-,N/A,,Haze,0,2014-01-09 12:14:00
6:17 AM,64.4,59.0,83,30.11,3.0,Calm,Calm,-,N/A,,Haze,0,2014-01-09 12:17:00
6:53 AM,63.0,57.9,84,30.13,4.0,Calm,Calm,-,N/A,,Haze,0,2014-01-09 12:53:00
7:01 AM,62.6,57.2,82,30.12,6.0,Calm,Calm,-,N/A,,Haze,0,2014-01-09 13:01:00
7:12 AM,71.6,57.2,60,30.12,2.0,Calm,Calm,-,N/A,,Haze,0,2014-01-09 13:12:00
7:16 AM,69.8,57.2,64,30.13,1.0,Calm,Calm,-,N/A,,Haze,0,2014-01-09 13:16:00
7:26 AM,64.4,57.2,77,30.13,2.0,Calm,Calm,-,N/A,,Haze,0,2014-01-09 13:26:00
7:31 AM,64.4,57.2,77,30.13,3.0,Calm,Calm,-,N/A,,Haze,0,2014-01-09 13:31:00
7:33 AM,62.6,57.2,82,30.13,2.0,Calm,Calm,-,N/A,,Haze,0,2014-01-09 13:33:00
7:40 AM,62.6,57.2,82,30.14,1.2,Calm,Calm,-,N/A,,Haze,0,2014-01-09 13:40:00
7:44 AM,62.6,57.2,82,30.14,1.0,Calm,Calm,-,N/A,,Haze,0,2014-01-09 13:44:00
7:51 AM,64.4,57.2,77,30.14,2.0,Calm,Calm,-,N/A,,Haze,0,2014-01-09 13:51:00
7:53 AM,64.9,57.0,75,30.14,3.0,Calm,Calm,-,N/A,,Haze,0,2014-01-09 13:53:00
8:08 AM,64.4,57.2,77,30.15,6.0,Calm,Calm,-,0.00,Rain,Light Rain,0,2014-01-09 14:08:00
8:23 AM,62.6,57.2,82,30.15,9.0,Calm,Calm,-,0.00,,Overcast,0,2014-01-09 14:23:00
8:29 AM,64.4,57.2,77,30.15,7.0,Calm,Calm,-,0.00,Rain,Light Rain,0,2014-01-09 14:29:00
8:53 AM,64.0,59.0,84,30.16,9.0,Calm,Calm,-,0.00,,Overcast,0,2014-01-09 14:53:00
9:03 AM,68.0,57.2,68,30.16,5.0,Calm,Calm,-,0.00,Rain,Light Rain,0,2014-01-09 15:03:00
9:12 AM,69.8,57.2,64,30.16,4.0,Calm,Calm,-,0.00,Rain,Light Rain,0,2014-01-09 15:12:00
9:22 AM,69.8,57.2,64,30.16,5.0,Calm,Calm,-,0.00,Rain,Light Rain,0,2014-01-09 15:22:00
9:53 AM,70.0,59.0,68,30.17,2.5,SE,3.5,-,0.01,Rain,Light Rain,130,2014-01-09 15:53:00
10:02 AM,71.6,59.0,64,30.17,9.0,Calm,Calm,-,0.00,,Overcast,0,2014-01-09 16:02:00
10:37 AM,69.8,62.6,78,30.17,2.5,Calm,Calm,-,0.00,Rain,Light Rain,0,2014-01-09 16:37:00
10:42 AM,69.8,62.6,78,30.16,3.0,Calm,Calm,-,0.00,Rain,Light Rain,0,2014-01-09 16:42:00
10:49 AM,71.6,62.6,73,30.16,6.0,Calm,Calm,-,0.00,Rain,Light Rain,0,2014-01-09 16:49:00
10:53 AM,71.1,62.1,73,30.16,7.0,Calm,Calm,-,0.00,,Overcast,0,2014-01-09 16:53:00
11:02 AM,73.4,62.6,69,30.15,8.0,Calm,Calm,-,N/A,,Overcast,0,2014-01-09 17:02:00
11:12 AM,75.2,62.6,65,30.15,7.0,ESE,3.5,-,N/A,,Overcast,120,2014-01-09 17:12:00
11:53 AM,-9999,-9999,N/A,30.14,7.0,SE,3.5,-,0.00,,Overcast,130,2014-01-09 17:53:00
12:26 PM,-9999,-9999,N/A,30.11,2.5,South,5.8,-,0.00,Rain,Light Rain,190,2014-01-09 18:26:00
12:33 PM,-9999,-9999,N/A,30.11,6.0,South,5.8,-,0.00,Rain,Light Rain,190,2014-01-09 18:33:00
12:53 PM,-9999,-9999,N/A,30.10,7.0,South,5.8,-,0.00,,Overcast,180,2014-01-09 18:53:00
1:17 PM,-9999,-9999,N/A,30.07,9.0,Variable,4.6,-,N/A,,Overcast,0,2014-01-09 19:17:00
1:53 PM,-9999,-9999,N/A,30.06,10.0,South,6.9,-,N/A,,Overcast,170,2014-01-09 19:53:00
2:53 PM,-9999,-9999,N/A,30.06,10.0,Variable,6.9,-,N/A,,Overcast,0,2014-01-09 20:53:00
3:53 PM,-9999,-9999,N/A,30.05,10.0,South,5.8,-,N/A,,Overcast,170,2014-01-09 21:53:00
5:53 PM,-9999,-9999,N/A,30.05,8.0,SE,3.5,-,N/A,,Overcast,140,2014-01-09 23:53:00
6:41 PM,73.4,62.6,69,30.05,2.5,ESE,3.5,-,N/A,,Haze,120,2014-01-10 00:41:00
6:48 PM,75.2,62.6,65,30.05,1.8,SE,4.6,-,N/A,,Haze,130,2014-01-10 00:48:00
6:53 PM,73.0,62.1,68,30.06,1.5,SE,4.6,-,N/A,,Haze,130,2014-01-10 00:53:00
7:01 PM,73.4,62.6,69,30.05,0.8,SE,4.6,-,N/A,,Haze,130,2014-01-10 01:01:00
7:19 PM,75.2,62.6,65,30.06,1.0,South,3.5,-,N/A,,Haze,180,2014-01-10 01:19:00
7:25 PM,69.8,62.6,78,30.06,2.0,SE,3.5,-,N/A,,Haze,140,2014-01-10 01:25:00
7:27 PM,71.6,62.6,73,30.06,3.0,Calm,Calm,-,N/A,,Haze,0,2014-01-10 01:27:00
7:35 PM,75.2,62.6,65,30.06,4.0,SSE,3.5,-,N/A,,Haze,150,2014-01-10 01:35:00
7:42 PM,71.6,62.6,73,30.06,3.0,SE,3.5,-,0.00,Rain,Light Rain,130,2014-01-10 01:42:00
7:53 PM,70.0,62.1,76,30.07,3.0,SE,3.5,-,0.00,,Haze,130,2014-01-10 01:53:00
7:57 PM,71.6,62.6,73,30.07,2.0,Calm,Calm,-,N/A,,Haze,0,2014-01-10 01:57:00
8:03 PM,71.6,62.6,73,30.07,1.2,SE,3.5,-,N/A,,Haze,140,2014-01-10 02:03:00
8:06 PM,71.6,62.6,73,30.07,1.0,SE,3.5,-,N/A,,Haze,130,2014-01-10 02:06:00
8:10 PM,69.8,62.6,78,30.07,0.8,SE,3.5,-,N/A,,Haze,140,2014-01-10 02:10:00
8:18 PM,69.8,62.6,78,30.07,1.0,Calm,Calm,-,N/A,,Haze,0,2014-01-10 02:18:00
8:40 PM,71.6,62.6,73,30.07,0.5,SE,3.5,-,N/A,,Haze,140,2014-01-10 02:40:00
8:53 PM,72.0,62.1,71,30.08,0.5,SE,3.5,-,N/A,,Haze,130,2014-01-10 02:53:00
9:00 PM,71.6,62.6,73,30.07,1.0,Calm,Calm,-,0.00,Rain,Light Rain,0,2014-01-10 03:00:00
9:06 PM,69.8,62.6,78,30.07,1.2,Calm,Calm,-,0.00,Rain,Light Rain,0,2014-01-10 03:06:00
9:14 PM,69.8,62.6,78,30.06,1.5,East,3.5,-,0.00,Rain,Light Rain,90,2014-01-10 03:14:00
9:25 PM,69.8,62.6,78,30.07,1.2,SSE,3.5,-,0.00,,Haze,150,2014-01-10 03:25:00
9:39 PM,71.6,62.6,73,30.06,0.8,Calm,Calm,-,0.00,Rain,Light Rain,0,2014-01-10 03:39:00
9:50 PM,69.8,62.6,78,30.07,0.8,Calm,Calm,-,0.00,Rain,Light Rain,0,2014-01-10 03:50:00
9:53 PM,68.0,62.1,81,30.07,0.8,Calm,Calm,-,0.00,Rain,Light Rain,0,2014-01-10 03:53:00
10:15 PM,69.8,62.6,78,30.06,0.5,SSE,3.5,-,0.00,,Haze,150,2014-01-10 04:15:00
10:25 PM,69.8,62.6,78,30.05,0.8,Calm,Calm,-,0.00,Rain,Light Rain,0,2014-01-10 04:25:00
10:37 PM,69.8,62.6,78,30.05,1.0,Calm,Calm,-,0.00,Rain,Light Rain,0,2014-01-10 04:37:00
10:45 PM,66.2,62.6,88,30.05,1.0,Calm,Calm,-,0.00,,Mist,0,2014-01-10 04:45:00
10:53 PM,66.9,63.0,87,30.05,1.0,Calm,Calm,-,0.00,,Mist,0,2014-01-10 04:53:00
11:01 PM,68.0,62.6,83,30.04,0.8,Calm,Calm,-,N/A,,Haze,0,2014-01-10 05:01:00
11:15 PM,66.2,62.6,88,30.04,0.5,Calm,Calm,-,N/A,,Haze,0,2014-01-10 05:15:00
11:19 PM,68.0,62.6,83,30.03,0.2,Calm,Calm,-,N/A,,Haze,0,2014-01-10 05:19:00
11:23 PM,66.2,62.6,88,30.03,0.2,Calm,Calm,-,N/A,,Haze,0,2014-01-10 05:23:00
11:53 PM,71.1,63.0,75,30.04,0.5,East,3.5,-,N/A,,Haze,90,2014-01-10 05:53:00
11:57 PM,71.6,62.6,73,30.03,0.5,East,3.5,-,N/A,,Haze,80,2014-01-10 05:57:00